SKW7 EBAW-ELLX
Flight info
| Callsign | SKW7 |
|---|---|
| Flight time | 0h 57m |
| Altitude | 9000 |
| Route | REMBA |
| Aircraft | DA42/L-SDFGRY/C |
Departure
| Time | 2026-04-22 18:43 |
|---|---|
| Airport | Antwerp International Airport (Deurne) (EBAW) |
Arrival
| Time | 2026-04-22 19:40 |
|---|---|
| Airport | Luxembourg-Findel International Airport (ELLX) |
| Time | Latitude | Longitude | Altitude | Speed | Heading |
|---|---|---|---|---|---|
| 2026-04-22 18:24 | 51.18773 | 4.45380 | 34 ft | 0 kts | 326° |
| 2026-04-22 18:31 | 51.18773 | 4.45381 | 34 ft | 0 kts | 326° |
| 2026-04-22 18:32 | 51.18772 | 4.45381 | 34 ft | 0 kts | 326° |
| 2026-04-22 18:37 | 51.18773 | 4.45380 | 34 ft | 1 kts | 332° |
| 2026-04-22 18:37 | 51.18801 | 4.45401 | 34 ft | 8 kts | 29° |
| 2026-04-22 18:37 | 51.18823 | 4.45449 | 34 ft | 7 kts | 66° |
| 2026-04-22 18:37 | 51.18886 | 4.45432 | 34 ft | 15 kts | 330° |
| 2026-04-22 18:38 | 51.18949 | 4.45365 | 34 ft | 10 kts | 309° |
| 2026-04-22 18:38 | 51.18990 | 4.45379 | 35 ft | 2 kts | 52° |
| 2026-04-22 18:38 | 51.18976 | 4.45359 | 35 ft | 9 kts | 200° |
| 2026-04-22 18:39 | 51.19033 | 4.45512 | 34 ft | 13 kts | 334° |
| 2026-04-22 18:39 | 51.19091 | 4.45443 | 32 ft | 0 kts | 324° |
| 2026-04-22 18:41 | 51.19131 | 4.45393 | 32 ft | 15 kts | 321° |
| 2026-04-22 18:41 | 51.19200 | 4.45320 | 30 ft | 10 kts | 8° |
| 2026-04-22 18:41 | 51.19210 | 4.45371 | 30 ft | 3 kts | 112° |
| 2026-04-22 18:41 | 51.19210 | 4.45374 | 30 ft | 0 kts | 110° |
| 2026-04-22 18:42 | 51.19153 | 4.45629 | 31 ft | 57 kts | 110° |
| 2026-04-22 18:42 | 51.18971 | 4.46417 | 82 ft | 87 kts | 112° |
| 2026-04-22 18:42 | 51.18725 | 4.47379 | 262 ft | 100 kts | 104° |
| 2026-04-22 18:43 | 51.18503 | 4.48490 | 511 ft | 110 kts | 112° |
| 2026-04-22 18:43 | 51.17931 | 4.49374 | 719 ft | 125 kts | 156° |
| 2026-04-22 18:43 | 51.17025 | 4.49271 | 880 ft | 137 kts | 192° |
| 2026-04-22 18:43 | 51.16081 | 4.48849 | 1022 ft | 143 kts | 189° |
| 2026-04-22 18:44 | 51.15101 | 4.48467 | 1146 ft | 145 kts | 186° |
| 2026-04-22 18:44 | 51.14123 | 4.48156 | 1302 ft | 144 kts | 184° |
| 2026-04-22 18:44 | 51.13157 | 4.47879 | 1478 ft | 136 kts | 183° |
| 2026-04-22 18:44 | 51.12255 | 4.47604 | 1656 ft | 128 kts | 182° |
| 2026-04-22 18:45 | 51.11393 | 4.47341 | 1837 ft | 124 kts | 183° |
| 2026-04-22 18:45 | 51.10555 | 4.47089 | 2047 ft | 120 kts | 182° |
| 2026-04-22 18:45 | 51.09758 | 4.46852 | 2297 ft | 114 kts | 181° |
| 2026-04-22 18:45 | 51.08992 | 4.46626 | 2551 ft | 110 kts | 180° |
| 2026-04-22 18:46 | 51.08246 | 4.46413 | 2806 ft | 111 kts | 179° |
| 2026-04-22 18:46 | 51.07459 | 4.46216 | 3017 ft | 121 kts | 179° |
| 2026-04-22 18:46 | 51.06572 | 4.46009 | 3011 ft | 134 kts | 180° |
| 2026-04-22 18:46 | 51.05643 | 4.45846 | 3008 ft | 138 kts | 179° |
| 2026-04-22 18:47 | 51.04676 | 4.45651 | 3007 ft | 141 kts | 180° |
| 2026-04-22 18:47 | 51.03696 | 4.45445 | 2984 ft | 143 kts | 180° |
| 2026-04-22 18:47 | 51.02704 | 4.45236 | 2989 ft | 144 kts | 180° |
| 2026-04-22 18:47 | 51.01708 | 4.45030 | 2984 ft | 145 kts | 180° |
| 2026-04-22 18:48 | 51.00705 | 4.44826 | 2985 ft | 145 kts | 180° |
| 2026-04-22 18:48 | 50.99702 | 4.44646 | 2980 ft | 143 kts | 173° |
| 2026-04-22 18:48 | 50.98937 | 4.45362 | 2973 ft | 126 kts | 118° |
| 2026-04-22 18:48 | 50.98509 | 4.46546 | 3030 ft | 122 kts | 115° |
| 2026-04-22 18:49 | 50.98031 | 4.47687 | 2994 ft | 127 kts | 122° |
| 2026-04-22 18:49 | 50.97329 | 4.48556 | 2987 ft | 137 kts | 157° |
| 2026-04-22 18:49 | 50.96365 | 4.48443 | 3002 ft | 146 kts | 189° |
| 2026-04-22 18:49 | 50.95445 | 4.47949 | 3323 ft | 129 kts | 192° |
| 2026-04-22 18:50 | 50.94676 | 4.47502 | 3850 ft | 109 kts | 191° |
| 2026-04-22 18:50 | 50.93958 | 4.47070 | 4176 ft | 111 kts | 192° |
| 2026-04-22 18:50 | 50.93241 | 4.46649 | 4518 ft | 109 kts | 192° |
| 2026-04-22 18:50 | 50.92525 | 4.46249 | 4862 ft | 108 kts | 192° |
| 2026-04-22 18:51 | 50.91815 | 4.45866 | 5196 ft | 107 kts | 192° |
| 2026-04-22 18:51 | 50.91104 | 4.45496 | 5506 ft | 108 kts | 192° |
| 2026-04-22 18:51 | 50.90382 | 4.45121 | 5808 ft | 110 kts | 192° |
| 2026-04-22 18:51 | 50.89658 | 4.45157 | 6109 ft | 102 kts | 149° |
| 2026-04-22 18:52 | 50.89049 | 4.45734 | 6379 ft | 103 kts | 142° |
| 2026-04-22 18:52 | 50.88445 | 4.46349 | 6641 ft | 103 kts | 142° |
| 2026-04-22 18:52 | 50.87837 | 4.46961 | 6900 ft | 104 kts | 142° |
| 2026-04-22 18:52 | 50.87224 | 4.47574 | 7149 ft | 104 kts | 142° |
| 2026-04-22 18:53 | 50.86607 | 4.48190 | 7321 ft | 112 kts | 142° |
| 2026-04-22 18:53 | 50.85897 | 4.48913 | 7323 ft | 129 kts | 143° |
| 2026-04-22 18:53 | 50.85129 | 4.49700 | 7325 ft | 132 kts | 143° |
| 2026-04-22 18:53 | 50.84353 | 4.50497 | 7325 ft | 133 kts | 142° |
| 2026-04-22 18:54 | 50.83572 | 4.51298 | 7326 ft | 134 kts | 142° |
| 2026-04-22 18:54 | 50.82790 | 4.52100 | 7326 ft | 134 kts | 142° |
| 2026-04-22 18:54 | 50.82007 | 4.52904 | 7322 ft | 134 kts | 142° |
| 2026-04-22 18:54 | 50.81250 | 4.53766 | 7315 ft | 133 kts | 127° |
| 2026-04-22 18:55 | 50.80744 | 4.54963 | 7320 ft | 131 kts | 123° |
| 2026-04-22 18:55 | 50.80176 | 4.56096 | 7321 ft | 132 kts | 126° |
| 2026-04-22 18:55 | 50.79575 | 4.57189 | 7321 ft | 132 kts | 128° |
| 2026-04-22 18:55 | 50.78959 | 4.58268 | 7322 ft | 132 kts | 128° |
| 2026-04-22 18:56 | 50.78340 | 4.59337 | 7324 ft | 132 kts | 129° |
| 2026-04-22 18:56 | 50.77719 | 4.60406 | 7323 ft | 132 kts | 129° |
| 2026-04-22 18:56 | 50.77101 | 4.61466 | 7322 ft | 133 kts | 129° |
| 2026-04-22 18:56 | 50.76472 | 4.62546 | 7325 ft | 134 kts | 129° |
| 2026-04-22 18:57 | 50.75840 | 4.63631 | 7325 ft | 135 kts | 129° |
| 2026-04-22 18:57 | 50.75203 | 4.64722 | 7330 ft | 135 kts | 129° |
| 2026-04-22 18:57 | 50.74565 | 4.65816 | 7327 ft | 135 kts | 129° |
| 2026-04-22 18:57 | 50.73928 | 4.66907 | 7327 ft | 135 kts | 129° |
| 2026-04-22 18:58 | 50.73291 | 4.67997 | 7325 ft | 135 kts | 128° |
| 2026-04-22 18:58 | 50.72657 | 4.69082 | 7328 ft | 135 kts | 129° |
| 2026-04-22 18:58 | 50.72020 | 4.70173 | 7330 ft | 135 kts | 129° |
| 2026-04-22 18:58 | 50.71379 | 4.71262 | 7332 ft | 135 kts | 130° |
| 2026-04-22 18:59 | 50.70737 | 4.72349 | 7332 ft | 135 kts | 129° |
| 2026-04-22 18:59 | 50.70107 | 4.73428 | 7331 ft | 135 kts | 129° |
| 2026-04-22 18:59 | 50.69470 | 4.74521 | 7328 ft | 135 kts | 129° |
| 2026-04-22 18:59 | 50.68831 | 4.75616 | 7332 ft | 136 kts | 129° |
| 2026-04-22 19:00 | 50.68192 | 4.76710 | 7337 ft | 136 kts | 129° |
| 2026-04-22 19:00 | 50.67551 | 4.77803 | 7339 ft | 136 kts | 129° |
| 2026-04-22 19:00 | 50.66909 | 4.78899 | 7332 ft | 136 kts | 129° |
| 2026-04-22 19:00 | 50.66267 | 4.79993 | 7330 ft | 136 kts | 129° |
| 2026-04-22 19:01 | 50.65626 | 4.81086 | 7323 ft | 136 kts | 129° |
| 2026-04-22 19:01 | 50.64992 | 4.82165 | 7324 ft | 136 kts | 129° |
| 2026-04-22 19:01 | 50.64351 | 4.83255 | 7325 ft | 135 kts | 129° |
| 2026-04-22 19:01 | 50.63711 | 4.84345 | 7326 ft | 135 kts | 129° |
| 2026-04-22 19:02 | 50.63071 | 4.85433 | 7330 ft | 135 kts | 129° |
| 2026-04-22 19:02 | 50.62430 | 4.86523 | 7328 ft | 135 kts | 129° |
| 2026-04-22 19:02 | 50.61790 | 4.87611 | 7328 ft | 136 kts | 129° |
| 2026-04-22 19:02 | 50.61149 | 4.88700 | 7327 ft | 136 kts | 129° |
| 2026-04-22 19:03 | 50.60506 | 4.89791 | 7327 ft | 136 kts | 129° |
| 2026-04-22 19:03 | 50.59863 | 4.90882 | 7329 ft | 136 kts | 129° |
| 2026-04-22 19:03 | 50.59227 | 4.91961 | 7333 ft | 136 kts | 129° |
| 2026-04-22 19:03 | 50.58584 | 4.93051 | 7329 ft | 136 kts | 129° |
| 2026-04-22 19:04 | 50.57940 | 4.94143 | 7332 ft | 136 kts | 129° |
| 2026-04-22 19:04 | 50.57297 | 4.95231 | 7329 ft | 136 kts | 129° |
| 2026-04-22 19:04 | 50.56655 | 4.96318 | 7332 ft | 136 kts | 129° |
| 2026-04-22 19:04 | 50.56013 | 4.97404 | 7331 ft | 135 kts | 129° |
| 2026-04-22 19:05 | 50.55372 | 4.98490 | 7330 ft | 135 kts | 129° |
| 2026-04-22 19:05 | 50.54730 | 4.99575 | 7328 ft | 135 kts | 129° |
| 2026-04-22 19:05 | 50.54089 | 5.00659 | 7327 ft | 135 kts | 129° |
| 2026-04-22 19:05 | 50.53449 | 5.01741 | 7331 ft | 135 kts | 129° |
| 2026-04-22 19:06 | 50.52808 | 5.02823 | 7332 ft | 135 kts | 129° |
| 2026-04-22 19:06 | 50.52176 | 5.03890 | 7331 ft | 135 kts | 129° |
| 2026-04-22 19:06 | 50.51536 | 5.04969 | 7331 ft | 135 kts | 129° |
| 2026-04-22 19:07 | 50.50256 | 5.07128 | 7329 ft | 135 kts | 129° |
| 2026-04-22 19:07 | 50.49614 | 5.08210 | 7331 ft | 135 kts | 129° |
| 2026-04-22 19:07 | 50.48973 | 5.09289 | 7327 ft | 135 kts | 129° |
| 2026-04-22 19:07 | 50.48333 | 5.10367 | 7325 ft | 135 kts | 129° |
| 2026-04-22 19:08 | 50.47694 | 5.11443 | 7330 ft | 135 kts | 129° |
| 2026-04-22 19:08 | 50.47054 | 5.12521 | 7330 ft | 135 kts | 129° |
| 2026-04-22 19:08 | 50.46414 | 5.13596 | 7329 ft | 134 kts | 129° |
| 2026-04-22 19:08 | 50.45778 | 5.14664 | 7327 ft | 134 kts | 129° |
| 2026-04-22 19:09 | 50.45142 | 5.15733 | 7329 ft | 134 kts | 129° |
| 2026-04-22 19:09 | 50.44504 | 5.16806 | 7330 ft | 134 kts | 129° |
| 2026-04-22 19:09 | 50.44081 | 5.17515 | 7330 ft | 135 kts | 129° |
| 2026-04-22 19:09 | 50.43222 | 5.18957 | 7329 ft | 135 kts | 129° |
| 2026-04-22 19:10 | 50.42579 | 5.20035 | 7328 ft | 135 kts | 129° |
| 2026-04-22 19:10 | 50.41944 | 5.21100 | 7330 ft | 135 kts | 129° |
| 2026-04-22 19:10 | 50.41300 | 5.22179 | 7328 ft | 135 kts | 129° |
| 2026-04-22 19:10 | 50.40655 | 5.23260 | 7331 ft | 136 kts | 129° |
| 2026-04-22 19:11 | 50.40009 | 5.24340 | 7331 ft | 136 kts | 129° |
| 2026-04-22 19:11 | 50.39364 | 5.25421 | 7329 ft | 136 kts | 129° |
| 2026-04-22 19:11 | 50.38717 | 5.26503 | 7329 ft | 136 kts | 129° |
| 2026-04-22 19:11 | 50.38071 | 5.27584 | 7328 ft | 136 kts | 129° |
| 2026-04-22 19:12 | 50.37425 | 5.28663 | 7331 ft | 136 kts | 129° |
| 2026-04-22 19:12 | 50.36781 | 5.29740 | 7330 ft | 135 kts | 129° |
| 2026-04-22 19:12 | 50.36145 | 5.30803 | 7329 ft | 136 kts | 129° |
| 2026-04-22 19:12 | 50.35499 | 5.31880 | 7332 ft | 136 kts | 129° |
| 2026-04-22 19:13 | 50.34853 | 5.32958 | 7329 ft | 135 kts | 129° |
| 2026-04-22 19:13 | 50.34207 | 5.34036 | 7334 ft | 136 kts | 129° |
| 2026-04-22 19:13 | 50.33561 | 5.35113 | 7332 ft | 136 kts | 129° |
| 2026-04-22 19:13 | 50.32913 | 5.36192 | 7335 ft | 136 kts | 129° |
| 2026-04-22 19:14 | 50.32265 | 5.37273 | 7333 ft | 136 kts | 129° |
| 2026-04-22 19:14 | 50.31615 | 5.38346 | 7331 ft | 136 kts | 130° |
| 2026-04-22 19:14 | 50.30967 | 5.39415 | 7333 ft | 135 kts | 130° |
| 2026-04-22 19:14 | 50.30333 | 5.40475 | 7333 ft | 135 kts | 129° |
| 2026-04-22 19:15 | 50.29900 | 5.41202 | 7334 ft | 135 kts | 128° |
| 2026-04-22 19:15 | 50.29050 | 5.42647 | 7332 ft | 135 kts | 129° |
| 2026-04-22 19:15 | 50.28413 | 5.43702 | 7333 ft | 135 kts | 129° |
| 2026-04-22 19:15 | 50.27766 | 5.44769 | 7336 ft | 135 kts | 129° |
| 2026-04-22 19:16 | 50.27121 | 5.45836 | 7333 ft | 135 kts | 129° |
| 2026-04-22 19:16 | 50.26475 | 5.46904 | 7334 ft | 135 kts | 129° |
| 2026-04-22 19:16 | 50.25831 | 5.47970 | 7336 ft | 135 kts | 129° |
| 2026-04-22 19:16 | 50.25187 | 5.49037 | 7335 ft | 135 kts | 129° |
| 2026-04-22 19:17 | 50.24542 | 5.50108 | 7334 ft | 135 kts | 129° |
| 2026-04-22 19:17 | 50.23895 | 5.51179 | 7332 ft | 135 kts | 129° |
| 2026-04-22 19:17 | 50.23250 | 5.52246 | 7333 ft | 135 kts | 129° |
| 2026-04-22 19:17 | 50.22616 | 5.53295 | 7332 ft | 134 kts | 130° |
| 2026-04-22 19:18 | 50.21975 | 5.54355 | 7333 ft | 135 kts | 129° |
| 2026-04-22 19:18 | 50.21333 | 5.55418 | 7333 ft | 135 kts | 129° |
| 2026-04-22 19:18 | 50.20690 | 5.56482 | 7332 ft | 134 kts | 130° |
| 2026-04-22 19:18 | 50.20047 | 5.57544 | 7337 ft | 135 kts | 129° |
| 2026-04-22 19:19 | 50.19402 | 5.58610 | 7334 ft | 135 kts | 129° |
| 2026-04-22 19:19 | 50.18757 | 5.59675 | 7333 ft | 135 kts | 130° |
| 2026-04-22 19:19 | 50.18121 | 5.60725 | 7330 ft | 134 kts | 129° |
| 2026-04-22 19:19 | 50.17484 | 5.61777 | 7329 ft | 132 kts | 130° |
| 2026-04-22 19:20 | 50.16853 | 5.62816 | 7333 ft | 132 kts | 129° |
| 2026-04-22 19:20 | 50.16220 | 5.63860 | 7335 ft | 133 kts | 129° |
| 2026-04-22 19:20 | 50.15582 | 5.64912 | 7333 ft | 134 kts | 129° |
| 2026-04-22 19:20 | 50.14939 | 5.65971 | 7332 ft | 134 kts | 129° |
| 2026-04-22 19:21 | 50.14298 | 5.67024 | 7337 ft | 134 kts | 129° |
| 2026-04-22 19:21 | 50.13657 | 5.68079 | 7330 ft | 133 kts | 129° |
| 2026-04-22 19:21 | 50.13025 | 5.69118 | 7335 ft | 132 kts | 129° |
| 2026-04-22 19:21 | 50.12401 | 5.70147 | 7333 ft | 132 kts | 129° |
| 2026-04-22 19:22 | 50.11767 | 5.71188 | 7336 ft | 133 kts | 129° |
| 2026-04-22 19:22 | 50.11129 | 5.72236 | 7335 ft | 133 kts | 129° |
| 2026-04-22 19:22 | 50.10486 | 5.73292 | 7333 ft | 135 kts | 129° |
| 2026-04-22 19:22 | 50.09842 | 5.74350 | 7333 ft | 134 kts | 129° |
| 2026-04-22 19:23 | 50.09200 | 5.75403 | 7332 ft | 134 kts | 129° |
| 2026-04-22 19:23 | 50.08560 | 5.76452 | 7332 ft | 134 kts | 129° |
| 2026-04-22 19:23 | 50.08135 | 5.77149 | 7335 ft | 134 kts | 129° |
| 2026-04-22 19:23 | 50.07492 | 5.78204 | 7330 ft | 134 kts | 129° |
| 2026-04-22 19:24 | 50.06847 | 5.79261 | 7332 ft | 135 kts | 129° |
| 2026-04-22 19:24 | 50.06200 | 5.80319 | 7330 ft | 135 kts | 129° |
| 2026-04-22 19:24 | 50.05344 | 5.81722 | 7333 ft | 135 kts | 129° |
| 2026-04-22 19:24 | 50.04906 | 5.82437 | 7333 ft | 135 kts | 129° |
| 2026-04-22 19:25 | 50.04259 | 5.83496 | 7332 ft | 135 kts | 129° |
| 2026-04-22 19:25 | 50.03611 | 5.84555 | 7333 ft | 135 kts | 129° |
| 2026-04-22 19:25 | 50.02959 | 5.85620 | 7333 ft | 136 kts | 129° |
| 2026-04-22 19:25 | 50.02316 | 5.86671 | 7333 ft | 136 kts | 129° |
| 2026-04-22 19:26 | 50.01666 | 5.87732 | 7332 ft | 135 kts | 129° |
| 2026-04-22 19:26 | 50.01017 | 5.88792 | 7334 ft | 135 kts | 129° |
| 2026-04-22 19:26 | 50.00365 | 5.89856 | 7332 ft | 136 kts | 129° |
| 2026-04-22 19:26 | 49.99712 | 5.90921 | 7334 ft | 136 kts | 129° |
| 2026-04-22 19:27 | 49.99060 | 5.91985 | 7331 ft | 136 kts | 129° |
| 2026-04-22 19:27 | 49.98408 | 5.93047 | 7330 ft | 136 kts | 129° |
| 2026-04-22 19:27 | 49.97752 | 5.94116 | 7332 ft | 137 kts | 129° |
| 2026-04-22 19:27 | 49.97095 | 5.95185 | 7329 ft | 136 kts | 129° |
| 2026-04-22 19:28 | 49.96450 | 5.96234 | 7331 ft | 136 kts | 129° |
| 2026-04-22 19:28 | 49.95796 | 5.97298 | 7331 ft | 136 kts | 129° |
| 2026-04-22 19:28 | 49.95139 | 5.98368 | 7327 ft | 137 kts | 129° |
| 2026-04-22 19:28 | 49.94482 | 5.99435 | 7330 ft | 136 kts | 129° |
| 2026-04-22 19:29 | 49.93826 | 6.00502 | 7330 ft | 136 kts | 129° |
| 2026-04-22 19:29 | 49.93171 | 6.01565 | 7328 ft | 137 kts | 129° |
| 2026-04-22 19:29 | 49.92516 | 6.02629 | 7322 ft | 136 kts | 130° |
| 2026-04-22 19:29 | 49.91864 | 6.03685 | 7322 ft | 136 kts | 129° |
| 2026-04-22 19:30 | 49.91433 | 6.04386 | 7320 ft | 135 kts | 130° |
| 2026-04-22 19:30 | 49.90565 | 6.05794 | 7320 ft | 135 kts | 129° |
| 2026-04-22 19:30 | 49.89914 | 6.06849 | 7324 ft | 135 kts | 129° |
| 2026-04-22 19:30 | 49.89260 | 6.07907 | 7316 ft | 136 kts | 129° |
| 2026-04-22 19:31 | 49.88605 | 6.08969 | 7317 ft | 136 kts | 129° |
| 2026-04-22 19:31 | 49.87956 | 6.10019 | 7317 ft | 137 kts | 129° |
| 2026-04-22 19:31 | 49.87294 | 6.11090 | 7310 ft | 138 kts | 129° |
| 2026-04-22 19:31 | 49.86634 | 6.12157 | 7313 ft | 136 kts | 129° |
| 2026-04-22 19:32 | 49.85979 | 6.13213 | 7311 ft | 136 kts | 131° |
| 2026-04-22 19:32 | 49.85089 | 6.13779 | 7186 ft | 146 kts | 175° |
| 2026-04-22 19:32 | 49.84103 | 6.13487 | 7024 ft | 142 kts | 189° |
| 2026-04-22 19:32 | 49.83160 | 6.13087 | 6853 ft | 139 kts | 189° |
| 2026-04-22 19:33 | 49.82237 | 6.12686 | 6655 ft | 137 kts | 189° |
| 2026-04-22 19:33 | 49.81315 | 6.12277 | 6396 ft | 138 kts | 189° |
| 2026-04-22 19:33 | 49.80399 | 6.11865 | 6135 ft | 136 kts | 189° |
| 2026-04-22 19:33 | 49.79492 | 6.11452 | 5884 ft | 136 kts | 190° |
| 2026-04-22 19:34 | 49.78584 | 6.11039 | 5631 ft | 136 kts | 190° |
| 2026-04-22 19:34 | 49.77663 | 6.10619 | 5296 ft | 140 kts | 190° |
| 2026-04-22 19:34 | 49.76715 | 6.10188 | 4919 ft | 145 kts | 190° |
| 2026-04-22 19:34 | 49.75738 | 6.09753 | 4525 ft | 146 kts | 186° |
| 2026-04-22 19:35 | 49.74789 | 6.09965 | 4138 ft | 136 kts | 149° |
| 2026-04-22 19:35 | 49.73941 | 6.10619 | 3757 ft | 136 kts | 146° |
| 2026-04-22 19:35 | 49.73092 | 6.11297 | 3382 ft | 138 kts | 146° |
| 2026-04-22 19:35 | 49.72279 | 6.12042 | 2994 ft | 136 kts | 136° |
| 2026-04-22 19:36 | 49.71540 | 6.12918 | 2607 ft | 132 kts | 135° |
| 2026-04-22 19:36 | 49.70828 | 6.13798 | 2226 ft | 130 kts | 134° |
| 2026-04-22 19:36 | 49.70117 | 6.14678 | 1823 ft | 131 kts | 136° |
| 2026-04-22 19:36 | 49.69425 | 6.15604 | 1500 ft | 128 kts | 135° |
| 2026-04-22 19:37 | 49.68795 | 6.16422 | 1762 ft | 110 kts | 137° |
| 2026-04-22 19:37 | 49.68163 | 6.17154 | 1974 ft | 118 kts | 142° |
| 2026-04-22 19:37 | 49.67420 | 6.17792 | 1974 ft | 127 kts | 147° |
| 2026-04-22 19:37 | 49.66624 | 6.18421 | 1910 ft | 130 kts | 147° |
| 2026-04-22 19:38 | 49.65821 | 6.19072 | 1942 ft | 129 kts | 150° |
| 2026-04-22 19:38 | 49.64953 | 6.19373 | 1897 ft | 136 kts | 179° |
| 2026-04-22 19:38 | 49.64085 | 6.18839 | 1769 ft | 131 kts | 216° |
| 2026-04-22 19:38 | 49.63407 | 6.17993 | 1725 ft | 120 kts | 220° |
| 2026-04-22 19:39 | 49.62754 | 6.17257 | 1598 ft | 113 kts | 197° |
| 2026-04-22 19:39 | 49.62018 | 6.17084 | 1530 ft | 100 kts | 178° |
| 2026-04-22 19:39 | 49.61628 | 6.17657 | 1407 ft | 83 kts | 94° |
| 2026-04-22 19:39 | 49.61686 | 6.18518 | 1287 ft | 79 kts | 75° |
| 2026-04-22 19:40 | 49.61940 | 6.19263 | 1212 ft | 76 kts | 62° |
| 2026-04-22 19:40 | 49.62141 | 6.19802 | 1221 ft | 43 kts | 58° |
| 2026-04-22 19:40 | 49.62275 | 6.20164 | 1217 ft | 40 kts | 60° |
| 2026-04-22 19:40 | 49.62400 | 6.20496 | 1213 ft | 22 kts | 59° |
| 2026-04-22 19:41 | 49.62473 | 6.20532 | 1213 ft | 13 kts | 331° |
| 2026-04-22 19:41 | 49.62553 | 6.20462 | 1213 ft | 12 kts | 321° |
| 2026-04-22 19:41 | 49.62526 | 6.20339 | 1213 ft | 17 kts | 230° |
| 2026-04-22 19:41 | 49.62456 | 6.20169 | 1215 ft | 20 kts | 240° |
| 2026-04-22 19:42 | 49.62407 | 6.20041 | 1217 ft | 10 kts | 243° |
| 2026-04-22 19:42 | 49.62424 | 6.19971 | 1215 ft | 11 kts | 326° |
| 2026-04-22 19:42 | 49.62469 | 6.19943 | 1215 ft | 5 kts | 58° |
| 2026-04-22 19:42 | 49.62518 | 6.19976 | 1215 ft | 10 kts | 21° |
| 2026-04-22 19:43 | 49.62560 | 6.20028 | 1215 ft | 0 kts | 56° |